Time;durP1;ratioP1;P1;durP2;ratioP2;P2;SDS_P1;SDS_P2;PMS_P1;PMS_P2;Temp;Humidity;BMP_temperature;BMP_pressure;BME280_temperature;BME280_humidity;BME280_pressure;Samples;Min_cycle;Max_cycle;Signal;HPM_P1;HPM_P2
2022/05/17 00:00:31;;;;;;;12.80;4.00;;;;;;;15.22;72.04;100028.53;6299941;28;20360;-77
2022/05/17 00:03:32;;;;;;;6.57;3.50;;;;;;;15.15;70.05;100026.50;6351692;28;20039;-77
2022/05/17 00:06:34;;;;;;;6.95;3.90;;;;;;;15.13;73.77;100036.31;6351656;28;20466;-77
2022/05/17 00:09:35;;;;;;;8.40;3.83;;;;;;;15.10;74.51;100032.16;6333509;28;20081;-77
2022/05/17 00:12:36;;;;;;;7.50;3.83;;;;;;;15.01;77.52;100035.50;6351494;28;20040;-76
2022/05/17 00:15:42;;;;;;;9.20;4.03;;;;;;;14.83;77.63;100032.56;6315944;28;20055;-76
2022/05/17 00:18:43;;;;;;;8.23;3.80;;;;;;;14.84;74.82;100029.78;6316176;28;20074;-76
2022/05/17 00:21:44;;;;;;;7.45;3.13;;;;;;;14.79;76.48;100026.72;6332856;28;20051;-76
2022/05/17 00:24:45;;;;;;;8.68;3.97;;;;;;;14.76;75.60;100029.56;6299762;28;20051;-76
2022/05/17 00:27:46;;;;;;;7.78;3.53;;;;;;;14.67;77.35;100025.88;6315778;28;20047;-76
2022/05/17 00:30:49;;;;;;;10.38;3.70;;;;;;;14.69;77.75;100028.38;6332834;28;20100;-76
2022/05/17 00:33:50;;;;;;;8.25;3.80;;;;;;;14.66;77.29;100031.25;6350506;28;20131;-76
2022/05/17 00:36:51;;;;;;;7.35;3.53;;;;;;;14.65;77.51;100019.09;6332557;28;20040;-76
2022/05/17 00:39:52;;;;;;;8.57;3.63;;;;;;;14.62;77.22;100025.41;6298912;28;20051;-76
2022/05/17 00:42:52;;;;;;;7.32;3.67;;;;;;;14.62;78.72;100025.41;6298811;28;20048;-76
2022/05/17 00:45:54;;;;;;;7.15;3.17;;;;;;;14.66;77.41;100031.25;6299091;28;20069;-77
2022/05/17 00:48:55;;;;;;;5.03;3.40;;;;;;;14.65;75.16;100030.41;6350327;28;20059;-77
2022/05/17 00:52:01;;;;;;;7.60;3.55;;;;;;;14.66;75.03;100028.63;6332088;28;20063;-77
2022/05/17 00:55:09;;;;;;;9.82;3.97;;;;;;;14.67;75.61;100023.25;6349095;28;20055;-77
2022/05/17 00:58:18;;;;;;;10.07;4.25;;;;;;;14.62;75.48;100021.94;6332091;28;20051;-76
2022/05/17 01:01:21;;;;;;;7.63;3.63;;;;;;;14.60;75.10;100022.06;6315013;28;20515;-76
2022/05/17 01:04:25;;;;;;;7.13;3.35;;;;;;;14.62;73.67;100033.28;6349926;28;20492;-76
2022/05/17 01:07:31;;;;;;;14.55;3.22;;;;;;;14.56;74.55;100032.91;6349986;28;20165;-78
2022/05/17 01:10:31;;;;;;;7.90;2.92;;;;;;;14.56;70.75;100027.66;6349596;28;20036;-76
2022/05/17 01:16:52;;;;;;;6.68;3.20;;;;;;;14.60;72.53;100023.84;6320180;28;20047;-76
2022/05/17 01:19:53;;;;;;;10.77;3.72;;;;;;;14.61;71.63;100020.28;6314458;28;20458;-76
2022/05/17 01:22:54;;;;;;;9.10;3.08;;;;;;;14.59;71.21;100019.56;6349572;28;20043;-77
2022/05/17 01:25:55;;;;;;;5.95;2.85;;;;;;;14.56;70.98;100027.66;6314515;28;20505;-76
2022/05/17 01:28:56;;;;;;;8.88;3.42;;;;;;;14.53;74.23;100023.47;6349292;28;20044;-76
2022/05/17 01:31:56;;;;;;;6.60;2.97;;;;;;;14.46;73.59;100017.88;6331228;28;20039;-76
2022/05/17 01:34:59;;;;;;;6.32;3.15;;;;;;;14.44;73.87;100013.69;6330936;28;20046;-76
2022/05/17 01:38:00;;;;;;;;;;;;;;;14.41;75.60;99999.03;6331557;28;20054;-76
2022/05/17 01:41:01;;;;;;;5.03;3.40;;;;;;;14.41;75.59;99998.16;6349190;28;20357;-77
2022/05/17 01:44:03;;;;;;;9.03;3.30;;;;;;;14.34;74.64;100000.44;6331019;28;20048;-77
2022/05/17 01:47:04;;;;;;;7.75;3.15;;;;;;;14.32;73.44;100005.81;6330932;28;20738;-76
2022/05/17 01:50:06;;;;;;;6.07;2.93;;;;;;;14.26;73.29;99997.56;6330792;28;20062;-77
2022/05/17 01:53:07;;;;;;;8.25;3.40;;;;;;;14.20;73.23;99998.88;6348814;28;20039;-76
2022/05/17 01:56:09;;;;;;;7.55;3.17;;;;;;;14.24;75.50;100008.19;6330535;28;20433;-76
2022/05/17 01:59:12;;;;;;;5.47;3.00;;;;;;;14.17;76.79;99996.50;6330618;28;20075;-77
2022/05/17 02:02:13;;;;;;;8.48;3.53;;;;;;;14.11;74.86;99996.97;6330786;28;20398;-77
2022/05/17 02:05:14;;;;;;;6.43;3.20;;;;;;;14.16;73.04;99996.59;6313631;28;20044;-77
2022/05/17 02:08:15;;;;;;;5.72;3.55;;;;;;;14.15;73.18;99997.59;6348650;28;20177;-77
2022/05/17 02:11:16;;;;;;;8.47;3.50;;;;;;;14.10;72.87;99990.91;6348491;28;20058;-77
2022/05/17 02:14:17;;;;;;;6.40;3.30;;;;;;;14.09;74.51;99994.47;6348359;28;20118;-77
2022/05/17 02:17:18;;;;;;;9.43;3.20;;;;;;;14.01;73.51;100002.06;6312707;28;20082;-76
2022/05/17 02:20:19;;;;;;;8.35;3.20;;;;;;;13.95;74.26;100006.97;6348236;28;20043;-76
2022/05/17 02:23:20;;;;;;;6.57;3.15;;;;;;;13.84;74.25;100005.16;6330301;28;20512;-76
2022/05/17 02:26:21;;;;;;;7.60;3.30;;;;;;;13.90;77.84;100008.16;6348182;28;20049;-76
2022/05/17 02:29:23;;;;;;;8.57;3.17;;;;;;;13.86;77.73;100011.94;6348136;28;20394;-76
2022/05/17 02:32:24;;;;;;;7.28;3.33;;;;;;;13.84;80.15;100016.47;6330072;28;20048;-76
2022/05/17 02:35:25;;;;;;;5.85;3.22;;;;;;;13.80;78.19;100006.34;6312204;28;20082;-76
2022/05/17 02:38:26;;;;;;;8.00;2.80;;;;;;;13.86;78.34;100011.13;6347344;28;20409;-76
2022/05/17 02:41:27;;;;;;;6.28;3.20;;;;;;;13.80;79.21;100001.91;6347663;28;20081;-76
2022/05/17 02:44:29;;;;;;;5.70;3.25;;;;;;;13.69;79.60;100001.88;6347685;28;20054;-76
2022/05/17 02:47:29;;;;;;;10.38;3.20;;;;;;;13.65;80.53;99998.66;6347020;28;20047;-76
2022/05/17 02:50:32;;;;;;;7.03;3.70;;;;;;;13.64;80.46;100002.22;6320774;28;20469;-76
2022/05/17 02:53:33;;;;;;;8.95;4.03;;;;;;;13.63;74.95;99997.09;6322277;28;20036;-76
2022/05/17 02:56:33;;;;;;;10.55;3.90;;;;;;;13.60;75.73;99998.16;6321497;28;20040;-77
2022/05/17 02:59:35;;;;;;;6.32;3.33;;;;;;;13.58;75.98;100004.47;6321420;28;20036;-78
2022/05/17 03:02:36;;;;;;;15.50;3.45;;;;;;;13.66;75.60;100010.81;6304392;28;20109;-77
2022/05/17 03:05:37;;;;;;;7.97;3.20;;;;;;;13.69;74.82;100001.88;6321126;28;20051;-76
2022/05/17 03:08:38;;;;;;;6.43;3.75;;;;;;;13.71;77.01;100005.22;6322337;28;20097;-76
2022/05/17 03:11:42;;;;;;;9.00;3.80;;;;;;;13.77;79.31;99996.88;6322272;28;20040;-76
2022/05/17 03:14:43;;;;;;;6.38;3.40;;;;;;;13.80;79.82;99993.22;6304516;28;20051;-77
2022/05/17 03:17:43;;;;;;;5.65;3.28;;;;;;;13.80;81.73;99996.69;6304093;28;20414;-76
2022/05/17 03:20:44;;;;;;;7.20;4.00;;;;;;;13.83;80.21;100004.28;6322218;28;20043;-76
2022/05/17 03:23:45;;;;;;;9.07;5.25;;;;;;;13.90;80.45;100004.69;6322121;28;20119;-77
2022/05/17 03:26:46;;;;;;;22.52;11.70;;;;;;;13.96;76.01;100001.59;6288179;28;20058;-78
2022/05/17 03:29:47;;;;;;;23.35;13.23;;;;;;;14.07;80.06;99991.13;6309151;28;20044;-77
2022/05/17 03:32:48;;;;;;;24.15;12.10;;;;;;;14.12;77.67;99990.75;6325736;28;20117;-77
2022/05/17 03:35:49;;;;;;;15.50;8.20;;;;;;;14.15;72.94;99987.91;6308829;28;20495;-77
2022/05/17 03:38:49;;;;;;;12.70;6.18;;;;;;;14.25;75.02;99996.75;6325891;28;20044;-78
2022/05/17 03:41:50;;;;;;;15.52;5.45;;;;;;;14.28;76.53;99988.63;6325394;28;20139;-77
2022/05/17 03:44:51;;;;;;;11.93;5.35;;;;;;;14.34;73.63;99989.13;6326990;28;20048;-77
2022/05/17 03:47:52;;;;;;;10.10;4.50;;;;;;;14.39;77.09;99994.81;6308566;28;20383;-77
2022/05/17 03:50:53;;;;;;;9.77;4.10;;;;;;;14.43;78.07;99991.00;6325186;28;20083;-78
2022/05/17 03:53:54;;;;;;;11.10;3.88;;;;;;;14.50;77.20;100002.72;6308521;28;20056;-77
2022/05/17 03:56:54;;;;;;;10.32;3.75;;;;;;;14.47;75.19;99995.88;6324965;28;20044;-76
2022/05/17 03:59:56;;;;;;;9.38;3.80;;;;;;;14.52;75.56;99992.94;6307989;28;20384;-76
2022/05/17 04:02:57;;;;;;;10.97;3.67;;;;;;;14.62;75.24;99998.28;6324286;28;20040;-76
2022/05/17 04:05:58;;;;;;;6.55;3.65;;;;;;;14.62;69.51;99987.78;6324533;28;20094;-77
2022/05/17 04:08:59;;;;;;;10.20;4.38;;;;;;;14.67;72.66;99989.09;6324940;28;20052;-76
2022/05/17 04:12:00;;;;;;;6.80;3.20;;;;;;;14.74;71.37;99988.63;6291515;28;20539;-75
2022/05/17 04:15:02;;;;;;;10.50;4.45;;;;;;;14.83;71.74;99990.53;6312435;28;20494;-76
2022/05/17 04:18:03;;;;;;;7.97;4.10;;;;;;;14.93;72.70;100003.75;6286195;28;20057;-77
2022/05/17 04:21:05;;;;;;;8.40;4.10;;;;;;;15.00;73.23;100000.50;6283141;28;20063;-77
2022/05/17 04:24:06;;;;;;;9.68;3.97;;;;;;;15.06;69.03;99993.94;6282968;28;20058;-77
2022/05/17 04:27:08;;;;;;;8.38;4.30;;;;;;;15.16;71.34;99994.03;6300698;28;20044;-77
2022/05/17 04:30:09;;;;;;;6.05;3.67;;;;;;;15.23;73.46;99996.03;6283051;28;20040;-78
2022/05/17 04:33:11;;;;;;;8.93;4.28;;;;;;;15.31;68.22;100000.66;6282872;28;20490;-78
2022/05/17 04:36:11;;;;;;;10.70;4.45;;;;;;;15.37;67.28;99997.53;6282660;28;20166;-78
2022/05/17 04:39:12;;;;;;;10.10;3.97;;;;;;;15.39;64.93;100002.66;6320600;28;20139;-78
2022/05/17 04:42:13;;;;;;;6.55;3.97;;;;;;;15.55;68.78;99999.63;6282204;28;20051;-78
2022/05/17 04:45:16;;;;;;;9.38;4.70;;;;;;;15.59;64.96;99987.88;6324350;28;20067;-78
2022/05/17 04:48:17;;;;;;;14.05;4.22;;;;;;;15.68;66.45;99992.38;6306999;28;20055;-78
2022/05/17 04:51:18;;;;;;;9.10;3.83;;;;;;;15.78;66.81;99993.31;6290259;28;20048;-78
2022/05/17 04:54:19;;;;;;;6.20;4.20;;;;;;;15.88;68.53;100004.72;6322848;28;20047;-74
2022/05/17 04:57:20;;;;;;;10.23;4.25;;;;;;;16.01;66.42;100017.66;6322612;28;20478;-74
2022/05/17 05:00:24;;;;;;;8.18;3.90;;;;;;;16.13;65.99;100023.69;6322719;28;20051;-78
2022/05/17 05:03:24;;;;;;;8.98;3.75;;;;;;;16.32;62.39;100010.63;6306031;28;20146;-78
2022/05/17 05:06:27;;;;;;;9.15;3.83;;;;;;;16.39;63.88;100000.41;6322491;28;20109;-78
2022/05/17 05:09:27;;;;;;;;;;;;;;;16.36;64.75;100005.13;6289748;28;20052;-78
2022/05/17 05:12:30;;;;;;;12.18;4.65;;;;;;;16.31;67.10;100010.78;6323712;28;19977;-78
2022/05/17 05:15:32;;;;;;;11.00;4.65;;;;;;;16.23;67.90;100008.78;6322350;28;20085;-78
2022/05/17 05:18:33;;;;;;;24.55;5.03;;;;;;;16.33;67.43;100019.38;6305422;28;20055;-78
2022/05/17 05:21:33;;;;;;;17.30;5.00;;;;;;;16.32;69.17;100015.88;6305305;28;20071;-79
2022/05/17 05:24:35;;;;;;;23.40;4.57;;;;;;;16.34;72.28;100010.50;6322074;28;20159;-75
2022/05/17 05:27:37;;;;;;;31.67;6.07;;;;;;;16.28;73.30;100018.94;6288593;28;20142;-74
2022/05/17 05:30:38;;;;;;;45.70;5.35;;;;;;;16.31;75.40;100024.78;6304901;28;20385;-75
2022/05/17 05:33:39;;;;;;;32.20;5.15;;;;;;;16.34;81.68;100014.94;6312999;28;20392;-76
2022/05/17 05:36:40;;;;;;;27.63;5.90;;;;;;;16.25;84.24;99998.97;6282911;28;20055;-75
2022/05/17 05:39:41;;;;;;;16.30;5.57;;;;;;;16.16;86.96;99993.66;6294087;28;20043;-80
2022/05/17 05:42:42;;;;;;;24.08;5.05;;;;;;;16.09;87.60;99991.53;6280092;28;20045;-75
2022/05/17 05:45:42;;;;;;;19.50;5.20;;;;;;;15.92;87.35;99994.78;6297931;28;20484;-80
2022/05/17 05:48:43;;;;;;;22.70;5.28;;;;;;;15.82;86.83;100017.56;6281084;28;20055;-79
2022/05/17 05:51:46;;;;;;;17.35;5.72;;;;;;;15.70;91.65;100011.47;6287334;28;20119;-75
2022/05/17 05:54:47;;;;;;;21.38;5.60;;;;;;;15.71;92.22;100000.03;6304997;28;20048;-80
2022/05/17 05:57:48;;;;;;;9.73;5.30;;;;;;;15.65;94.82;99998.72;6294237;28;20052;-79
2022/05/17 06:00:49;;;;;;;15.65;5.38;;;;;;;15.66;94.27;99996.91;6317251;28;20054;-80
2022/05/17 06:03:50;;;;;;;14.38;6.20;;;;;;;15.74;95.41;100004.22;6308874;28;20059;-80
2022/05/17 06:06:51;;;;;;;15.15;5.63;;;;;;;15.77;94.63;100007.41;6347298;28;20063;-79
2022/05/17 06:09:52;;;;;;;17.73;5.63;;;;;;;15.81;91.04;100014.06;6347037;28;20063;-75
2022/05/17 06:12:53;;;;;;;8.30;4.70;;;;;;;15.87;92.27;100010.09;6287182;28;20058;-79
2022/05/17 06:15:53;;;;;;;12.65;5.20;;;;;;;15.93;93.69;100014.84;6303695;28;20056;-80
2022/05/17 06:18:54;;;;;;;13.90;5.70;;;;;;;15.99;91.84;100010.88;6320807;28;20052;-75
2022/05/17 06:21:55;;;;;;;15.07;4.82;;;;;;;16.07;92.82;100017.16;6270819;28;20048;-75
2022/05/17 06:24:56;;;;;;;10.57;5.22;;;;;;;16.23;92.80;100018.50;6304114;28;20046;-79
2022/05/17 06:27:57;;;;;;;9.05;5.47;;;;;;;16.39;92.54;100010.09;6321951;28;20040;-75
2022/05/17 06:30:57;;;;;;;10.52;5.50;;;;;;;16.54;92.60;100006.16;6303767;28;20135;-79
2022/05/17 06:33:58;;;;;;;12.55;6.20;;;;;;;16.60;91.39;100004.81;6320729;28;20051;-75
2022/05/17 06:36:59;;;;;;;10.43;5.72;;;;;;;16.89;91.94;100018.91;6321855;28;20075;-75
2022/05/17 06:40:00;;;;;;;11.70;5.75;;;;;;;17.07;89.94;100008.53;6303892;28;20063;-79
2022/05/17 06:43:02;;;;;;;16.40;5.60;;;;;;;17.23;85.94;100010.63;6286964;28;20048;-79
2022/05/17 06:46:04;;;;;;;14.50;5.47;;;;;;;17.58;86.32;100008.41;6303634;28;20445;-75
2022/05/17 06:49:04;;;;;;;12.32;4.68;;;;;;;17.72;82.49;100008.81;6321421;28;20144;-79
2022/05/17 06:52:08;;;;;;;11.15;5.28;;;;;;;17.81;80.76;100003.66;6303619;28;20411;-78
2022/05/17 06:55:08;;;;;;;9.88;4.72;;;;;;;18.07;79.78;100001.28;6303989;28;20047;-75
2022/05/17 06:58:09;;;;;;;13.00;5.20;;;;;;;18.24;80.81;99995.28;6286862;28;20040;-79
2022/05/17 07:01:10;;;;;;;10.18;4.82;;;;;;;18.32;80.17;99991.88;6303254;28;20487;-75
2022/05/17 07:04:13;;;;;;;14.70;5.55;;;;;;;18.57;80.72;99994.84;6303280;28;20055;-75
2022/05/17 07:07:14;;;;;;;12.20;4.88;;;;;;;18.65;77.35;100001.06;6303618;28;20531;-78
2022/05/17 07:13:34;;;;;;;13.43;6.00;;;;;;;18.71;78.69;99991.72;6303167;28;20561;-79
2022/05/17 07:16:35;;;;;;;11.40;5.28;;;;;;;18.83;80.28;99984.44;6320003;28;20048;-78
2022/05/17 07:19:36;;;;;;;8.83;5.60;;;;;;;18.73;78.63;99993.22;6303366;28;20040;-75
2022/05/17 07:22:37;;;;;;;14.95;5.47;;;;;;;18.78;80.58;99992.81;6302748;28;20375;-77
2022/05/17 07:25:43;;;;;;;10.57;5.03;;;;;;;18.69;79.39;99985.75;6303395;28;20047;-74
2022/05/17 07:28:47;;;;;;;12.43;5.25;;;;;;;18.60;78.47;99991.91;6319780;28;20139;-78
2022/05/17 07:31:49;;;;;;;10.65;4.85;;;;;;;18.77;79.92;99982.38;6321067;28;20040;-75
2022/05/17 07:34:50;;;;;;;13.27;4.55;;;;;;;18.88;78.72;99982.19;6321181;28;20051;-78
2022/05/17 07:37:51;;;;;;;15.47;5.50;;;;;;;18.99;80.44;99987.25;6303116;28;20044;-78
2022/05/17 07:40:53;;;;;;;8.27;5.53;;;;;;;19.13;81.65;99996.50;6286506;28;20044;-74
2022/05/17 07:43:54;;;;;;;11.50;5.43;;;;;;;19.16;81.59;99992.72;6321651;28;20036;-75
2022/05/17 07:46:54;;;;;;;10.25;5.57;;;;;;;18.99;80.00;99989.09;6303041;28;20072;-78
2022/05/17 07:49:55;;;;;;;12.50;5.73;;;;;;;19.03;84.74;99979.88;6302525;28;20044;-78
2022/05/17 07:52:56;;;;;;;18.87;6.47;;;;;;;19.09;84.20;99977.44;6291437;28;20071;-78
2022/05/17 07:55:57;;;;;;;7.13;4.93;;;;;;;19.05;83.24;99984.03;6306161;28;20122;-75
2022/05/17 07:58:58;;;;;;;12.07;5.93;;;;;;;19.26;82.45;99986.38;6302561;28;20048;-74
2022/05/17 08:01:59;;;;;;;12.17;5.80;;;;;;;19.38;82.65;99994.91;6302629;28;20185;-74
2022/05/17 08:05:00;;;;;;;10.85;6.00;;;;;;;19.31;83.55;99986.75;6302665;28;20044;-78
2022/05/17 08:08:02;;;;;;;10.93;5.67;;;;;;;19.50;81.13;99982.28;6286089;28;20048;-74
2022/05/17 08:11:03;;;;;;;;;;;;;;;19.55;80.62;99987.94;6302727;28;20048;-74
2022/05/17 08:14:03;;;;;;;8.63;5.05;;;;;;;19.60;79.89;99974.22;6287192;28;19965;-74
2022/05/17 08:17:07;;;;;;;11.67;5.53;;;;;;;19.71;80.45;99971.38;6306818;28;20062;-74
2022/05/17 08:20:12;;;;;;;10.20;5.93;;;;;;;19.77;78.76;99967.25;6306718;28;20044;-74
2022/05/17 08:23:14;;;;;;;7.00;5.15;;;;;;;20.00;80.01;99967.59;6298686;28;20049;-74
2022/05/17 08:29:34;;;;;;;9.18;4.72;;;;;;;20.76;77.45;99980.06;6339435;28;20040;-74
2022/05/17 08:35:54;;;;;;;9.77;5.13;;;;;;;21.13;75.82;99981.47;6309495;28;20043;-78
2022/05/17 08:38:55;;;;;;;10.53;5.20;;;;;;;21.52;76.51;99972.88;6306816;28;20105;-74
2022/05/17 08:42:02;;;;;;;9.32;5.18;;;;;;;21.89;73.90;99977.66;6317760;28;20039;-79
2022/05/17 08:45:14;;;;;;;8.82;4.88;;;;;;;22.14;70.60;99981.06;6314761;28;20105;-76
2022/05/17 08:48:17;;;;;;;8.00;5.03;;;;;;;21.81;70.07;99969.72;6349659;28;20047;-74
2022/05/17 08:51:42;;;;;;;9.38;4.55;;;;;;;21.98;74.00;99978.47;6331090;28;20461;-78
2022/05/17 08:54:58;;;;;;;8.30;4.07;;;;;;;22.19;74.67;99980.56;6331178;28;20079;-75
2022/05/17 08:58:02;;;;;;;9.23;4.80;;;;;;;22.34;67.08;99975.38;6331391;28;20074;-74
2022/05/17 09:01:19;;;;;;;10.88;4.30;;;;;;;22.52;69.05;99986.63;6330995;28;20052;-78
2022/05/17 09:05:04;;;;;;;7.20;4.53;;;;;;;22.11;72.41;99981.44;6349520;28;20040;-79
2022/05/17 09:08:42;;;;;;;10.65;4.70;;;;;;;22.28;70.34;99984.91;6271311;28;20051;-74
2022/05/17 09:12:03;;;;;;;6.13;3.90;;;;;;;22.46;68.87;99965.22;6283525;28;20055;-78
2022/05/17 09:15:05;;;;;;;8.43;4.07;;;;;;;22.62;70.60;99972.28;6340255;28;20375;-77
2022/05/17 09:18:10;;;;;;;7.25;4.18;;;;;;;22.87;72.20;99962.34;6305830;28;20037;-74
2022/05/17 09:21:33;;;;;;;12.38;4.63;;;;;;;23.01;68.37;99961.63;6305576;28;20047;-79
2022/05/17 09:24:41;;;;;;;7.28;3.92;;;;;;;23.18;70.73;99957.00;6288690;28;20083;-74
2022/05/17 09:27:47;;;;;;;7.75;4.22;;;;;;;22.93;68.57;99953.66;6305221;28;20082;-78
2022/05/17 09:31:06;;;;;;;6.82;3.83;;;;;;;22.62;70.62;99951.84;6288251;28;20040;-73
2022/05/17 09:34:08;;;;;;;6.63;3.83;;;;;;;22.80;70.13;99950.75;6288452;28;20074;-74
2022/05/17 09:37:18;;;;;;;7.13;3.60;;;;;;;23.12;69.18;99953.25;6305480;28;20043;-74
2022/05/17 09:40:28;;;;;;;5.05;3.72;;;;;;;23.46;70.27;99965.28;6304760;28;20075;-74
2022/05/17 09:43:38;;;;;;;6.95;3.53;;;;;;;23.65;68.01;99968.44;6288286;28;20051;-74
2022/05/17 09:46:46;;;;;;;7.63;3.70;;;;;;;23.69;66.33;99962.56;6304895;28;20048;-78
2022/05/17 09:53:10;;;;;;;10.73;3.83;;;;;;;24.31;63.88;99963.28;6307651;28;20060;-78
2022/05/17 09:56:13;;;;;;;9.40;3.67;;;;;;;24.50;65.08;99967.22;6288017;28;20052;-78
2022/05/17 09:59:22;;;;;;;6.35;3.95;;;;;;;24.07;65.20;99962.56;6322650;28;20051;-74
2022/05/17 10:02:29;;;;;;;4.35;3.50;;;;;;;23.58;65.23;99978.16;6304323;28;20501;-74
2022/05/17 10:05:43;;;;;;;6.93;4.10;;;;;;;23.51;66.35;99973.56;6304381;28;20467;-74
2022/05/17 10:09:09;;;;;;;9.07;4.07;;;;;;;23.61;67.22;99967.97;6287723;28;20135;-74
2022/05/17 10:12:28;;;;;;;9.57;3.95;;;;;;;23.56;69.11;99964.22;6312561;28;20058;-78
2022/05/17 10:15:32;;;;;;;7.78;3.97;;;;;;;23.39;67.01;99963.50;6322306;28;20040;-74
2022/05/17 10:18:42;;;;;;;7.00;3.80;;;;;;;23.36;68.85;99964.69;6304247;28;20040;-79
2022/05/17 10:21:55;;;;;;;6.15;4.00;;;;;;;23.18;67.83;99972.16;6287401;28;20047;-78
2022/05/17 10:25:24;;;;;;;11.98;3.90;;;;;;;22.95;67.57;99970.28;6304286;28;20418;-79
2022/05/17 10:28:59;;;;;;;7.47;4.40;;;;;;;22.93;67.45;99967.78;6303849;28;20139;-79
2022/05/17 10:32:15;;;;;;;5.82;4.10;;;;;;;22.89;68.30;99960.34;6261578;28;20052;-74
2022/05/17 10:35:17;;;;;;;6.25;4.25;;;;;;;22.98;70.47;99961.09;6321938;28;20040;-74
2022/05/17 10:38:25;;;;;;;8.05;4.20;;;;;;;23.10;66.14;99965.03;6286566;28;20489;-75
2022/05/17 10:41:26;;;;;;;12.45;4.78;;;;;;;23.16;66.54;99969.66;6321736;28;20067;-74
2022/05/17 10:44:47;;;;;;;11.35;4.28;;;;;;;23.09;68.24;99958.09;6287418;28;20060;-79
2022/05/17 10:48:07;;;;;;;12.47;4.57;;;;;;;23.08;68.17;99957.25;6303612;28;20425;-74
2022/05/17 10:51:47;;;;;;;7.22;3.53;;;;;;;23.05;67.58;99960.25;6303260;28;20293;-79
2022/05/17 10:55:14;;;;;;;5.50;3.22;;;;;;;23.04;68.37;99957.78;6233187;28;20102;-79
2022/05/17 10:58:48;;;;;;;5.45;3.20;;;;;;;23.01;68.85;99963.44;6320306;28;20516;-79
2022/05/17 11:02:09;;;;;;;5.88;3.00;;;;;;;23.18;67.07;99962.31;6303157;28;20048;-74
2022/05/17 11:05:29;;;;;;;11.65;4.30;;;;;;;23.44;69.01;99951.31;6303635;28;20039;-78
2022/05/17 11:08:39;;;;;;;5.63;3.47;;;;;;;23.51;65.08;99954.06;6303282;28;20074;-74
2022/05/17 11:12:09;;;;;;;9.05;3.17;;;;;;;23.68;65.05;99952.94;6303598;28;20040;-79
2022/05/17 11:15:15;;;;;;;5.97;3.15;;;;;;;23.61;64.71;99951.97;6303285;28;20490;-74
2022/05/17 11:18:45;;;;;;;5.95;3.10;;;;;;;23.69;65.32;99943.91;6332061;28;20051;-78
2022/05/17 11:21:53;;;;;;;7.13;3.03;;;;;;;23.98;63.36;99955.66;6346355;28;20052;-74
2022/05/17 11:25:08;;;;;;;4.13;2.83;;;;;;;24.22;60.74;99956.41;6328060;28;20056;-79
2022/05/17 11:28:36;;;;;;;5.85;2.22;;;;;;;24.42;56.84;99952.16;6346455;28;20051;-79
2022/05/17 11:32:00;;;;;;;3.72;2.00;;;;;;;24.54;55.60;99947.16;6290574;28;20071;-79
2022/05/17 11:35:23;;;;;;;4.43;1.73;;;;;;;24.74;53.15;99942.88;6326789;28;20055;-74
2022/05/17 11:38:36;;;;;;;6.18;1.65;;;;;;;24.75;53.23;99938.41;6346409;28;20043;-74
2022/05/17 11:41:37;;;;;;;3.15;1.55;;;;;;;25.14;52.93;99937.97;6308220;28;20051;-76
2022/05/17 11:44:44;;;;;;;4.00;1.70;;;;;;;25.30;52.70;99931.53;6327996;28;20505;-79
2022/05/17 11:47:51;;;;;;;3.10;1.88;;;;;;;25.50;52.38;99929.03;6327983;28;20047;-79
2022/05/17 11:50:52;;;;;;;5.13;1.98;;;;;;;25.30;54.53;99933.41;6350369;28;20055;-79
2022/05/17 11:53:53;;;;;;;8.18;1.70;;;;;;;25.20;54.80;99922.19;6350830;28;20035;-74
2022/05/17 11:56:54;;;;;;;1.90;1.70;;;;;;;25.36;53.57;99921.94;6350823;28;20040;-74
2022/05/17 12:00:29;;;;;;;3.63;1.88;;;;;;;25.54;51.52;99924.13;6315749;28;20161;-74
2022/05/17 12:03:50;;;;;;;5.30;2.20;;;;;;;25.28;54.76;99922.09;6350721;28;20039;-79
2022/05/17 12:06:54;;;;;;;6.97;2.50;;;;;;;25.48;52.24;99912.38;6315381;28;20055;-75
2022/05/17 12:10:16;;;;;;;2.92;1.88;;;;;;;25.35;50.19;99912.28;6315296;28;20608;-74
2022/05/17 12:13:19;;;;;;;4.07;2.20;;;;;;;25.13;49.65;99903.44;6315408;28;20047;-79
2022/05/17 12:16:24;;;;;;;5.93;2.38;;;;;;;25.06;52.57;99895.38;6328694;28;20058;-74
2022/05/17 12:20:05;;;;;;;4.35;2.40;;;;;;;24.99;51.96;99894.47;6350386;28;20039;-74
2022/05/17 12:23:14;;;;;;;3.78;1.92;;;;;;;25.10;53.39;99882.47;6315250;28;20044;-74
2022/05/17 12:26:24;;;;;;;7.68;2.30;;;;;;;24.89;50.26;99885.97;6315081;28;20192;-79
2022/05/17 12:32:46;;;;;;;7.20;2.58;;;;;;;24.51;53.65;99868.38;6349798;28;20065;-74
2022/05/17 12:35:49;;;;;;;7.72;2.60;;;;;;;24.51;52.21;99867.56;6314973;28;20118;-78
2022/05/17 12:45:45;;;;;;;5.95;2.55;;;;;;;24.44;50.57;99855.94;6327623;28;20083;-79
2022/05/17 12:48:48;;;;;;;3.08;2.10;;;;;;;24.50;48.59;99855.22;6349535;28;20046;-74
2022/05/17 12:51:53;;;;;;;7.70;2.63;;;;;;;24.52;49.46;99848.69;6331580;28;20040;-74
2022/05/17 12:54:58;;;;;;;6.57;2.63;;;;;;;24.47;48.32;99847.56;6346934;28;20158;-74
2022/05/17 12:58:15;;;;;;;4.18;2.50;;;;;;;24.61;47.48;99852.06;6339546;28;20051;-74
2022/05/17 13:01:23;;;;;;;5.03;2.53;;;;;;;24.66;46.73;99849.63;6305499;28;20096;-74
2022/05/17 13:04:38;;;;;;;4.05;2.15;;;;;;;24.71;46.80;99838.41;6331687;28;20085;-74
2022/05/17 13:07:39;;;;;;;4.88;2.42;;;;;;;24.64;51.90;99842.84;6336808;28;20082;-74
2022/05/17 13:10:43;;;;;;;6.47;2.60;;;;;;;24.55;50.68;99844.81;6288624;28;20048;-74
2022/05/17 13:13:44;;;;;;;8.05;3.20;;;;;;;24.41;52.73;99837.66;6305562;28;20109;-79
2022/05/17 13:16:45;;;;;;;5.93;2.50;;;;;;;24.23;51.91;99830.91;6285533;28;20079;-74
2022/05/17 13:19:49;;;;;;;8.32;2.83;;;;;;;24.06;56.18;99830.31;6329368;28;20061;-78
2022/05/17 13:22:54;;;;;;;7.85;2.72;;;;;;;24.05;54.06;99826.00;6311631;28;20409;-78
2022/05/17 13:25:59;;;;;;;6.85;3.25;;;;;;;23.99;52.73;99826.75;6330431;28;20519;-78
2022/05/17 13:29:19;;;;;;;5.80;3.28;;;;;;;23.90;53.25;99830.50;6297503;28;20051;-73
2022/05/17 13:32:23;;;;;;;4.05;2.60;;;;;;;23.93;54.40;99822.97;6330068;28;20100;-78
2022/05/17 13:35:29;;;;;;;5.03;2.72;;;;;;;23.84;55.96;99826.75;6328581;28;20043;-74
2022/05/17 13:38:31;;;;;;;7.28;2.80;;;;;;;23.51;55.65;99826.28;6330381;28;20048;-78
2022/05/17 13:41:41;;;;;;;8.27;5.60;;;;;;;22.98;68.06;99836.91;6313508;28;20451;-79
2022/05/17 13:44:58;;;;;;;12.02;5.32;;;;;;;22.65;69.87;99836.31;6347987;28;20398;-79
2022/05/17 13:48:00;;;;;;;13.23;6.07;;;;;;;22.47;70.88;99837.44;6347060;28;20043;-74
2022/05/17 13:51:02;;;;;;;8.43;5.50;;;;;;;21.93;70.55;99843.50;6312595;28;20054;-75
2022/05/17 13:54:25;;;;;;;7.20;5.00;;;;;;;21.53;71.73;99839.16;6348133;28;20040;-73
2022/05/17 13:57:34;;;;;;;16.73;5.60;;;;;;;21.22;74.83;99842.50;6348111;28;20039;-74
2022/05/17 14:00:39;;;;;;;9.05;5.90;;;;;;;21.01;77.11;99843.03;6329366;28;20051;-74
2022/05/17 14:03:41;;;;;;;7.03;5.00;;;;;;;20.75;77.05;99848.47;6311204;28;20051;-73
2022/05/17 14:06:49;;;;;;;13.57;5.35;;;;;;;20.48;82.20;99849.56;6304464;28;20051;-73
2022/05/17 14:13:40;;;;;;;12.20;6.55;;;;;;;19.81;94.72;99852.13;6321672;28;20067;-74
2022/05/17 14:16:46;;;;;;;12.00;5.32;;;;;;;19.71;90.51;99860.22;6312987;28;20051;-74
2022/05/17 14:19:55;;;;;;;12.35;5.95;;;;;;;19.22;97.16;99847.47;6329159;28;20048;-78
2022/05/17 14:22:59;;;;;;;9.63;5.35;;;;;;;19.38;91.98;99838.81;6329257;28;20032;-78
2022/05/17 14:26:00;;;;;;;9.10;5.78;;;;;;;19.25;95.58;99846.31;6312015;28;20425;-73
2022/05/17 14:29:01;;;;;;;10.75;6.55;;;;;;;19.35;93.97;99846.22;6328886;28;20055;-74
2022/05/17 14:32:03;;;;;;;12.57;6.17;;;;;;;19.42;98.21;99852.59;6295148;28;20386;-73
2022/05/17 14:35:04;;;;;;;;;;;;;;;19.50;95.75;99845.50;6329353;28;20120;-74
2022/05/17 14:38:07;;;;;;;13.43;6.85;;;;;;;19.26;97.09;99846.19;6328803;28;19935;-74
2022/05/17 14:41:07;;;;;;;10.95;6.60;;;;;;;19.19;97.62;99841.66;6280874;28;20048;-77
2022/05/17 14:44:09;;;;;;;8.80;6.47;;;;;;;19.33;97.52;99839.31;6286853;28;20426;-78
2022/05/17 14:47:12;;;;;;;;;;;;;;;19.24;100.00;99842.84;6303980;28;20114;-77
2022/05/17 14:50:18;;;;;;;12.18;6.68;;;;;;;18.99;100.00;99841.03;6303078;28;20010;-73
2022/05/17 14:53:20;;;;;;;11.80;6.57;;;;;;;18.99;100.00;99833.09;6303464;28;20483;-78
2022/05/17 14:56:21;;;;;;;10.38;6.15;;;;;;;18.93;100.00;99837.16;6321393;28;20040;-78